sensor_id;sensor_type;location;lat;lon;timestamp;P1;durP1;ratioP1;P2;durP2;ratioP2
8397;SDS011;4236;54.504;9.588;2023-11-19T00:00:18;24.60;;;22.80;;
8397;SDS011;4236;54.504;9.588;2023-11-19T00:02:46;21.87;;;20.47;;
8397;SDS011;4236;54.504;9.588;2023-11-19T00:05:14;22.23;;;20.83;;
8397;SDS011;4236;54.504;9.588;2023-11-19T00:07:42;23.77;;;22.27;;
8397;SDS011;4236;54.504;9.588;2023-11-19T00:10:11;24.03;;;22.53;;
8397;SDS011;4236;54.504;9.588;2023-11-19T00:12:40;22.53;;;21.13;;
8397;SDS011;4236;54.504;9.588;2023-11-19T00:15:09;24.30;;;22.50;;
8397;SDS011;4236;54.504;9.588;2023-11-19T00:17:38;22.00;;;20.60;;
8397;SDS011;4236;54.504;9.588;2023-11-19T00:20:07;23.47;;;21.90;;
8397;SDS011;4236;54.504;9.588;2023-11-19T00:22:35;23.03;;;21.50;;
8397;SDS011;4236;54.504;9.588;2023-11-19T00:25:14;21.67;;;20.37;;
8397;SDS011;4236;54.504;9.588;2023-11-19T00:27:43;24.17;;;22.47;;
8397;SDS011;4236;54.504;9.588;2023-11-19T00:30:12;22.30;;;20.97;;
8397;SDS011;4236;54.504;9.588;2023-11-19T00:32:40;23.30;;;21.63;;
8397;SDS011;4236;54.504;9.588;2023-11-19T00:35:08;23.10;;;21.70;;
8397;SDS011;4236;54.504;9.588;2023-11-19T00:37:37;21.93;;;20.60;;
8397;SDS011;4236;54.504;9.588;2023-11-19T00:40:05;23.37;;;21.83;;
8397;SDS011;4236;54.504;9.588;2023-11-19T00:42:33;23.43;;;21.77;;
8397;SDS011;4236;54.504;9.588;2023-11-19T00:45:02;23.00;;;21.30;;
8397;SDS011;4236;54.504;9.588;2023-11-19T00:47:29;23.17;;;21.63;;
8397;SDS011;4236;54.504;9.588;2023-11-19T00:49:57;23.20;;;21.47;;
8397;SDS011;4236;54.504;9.588;2023-11-19T00:52:25;23.03;;;21.50;;
8397;SDS011;4236;54.504;9.588;2023-11-19T00:54:53;23.00;;;21.33;;
8397;SDS011;4236;54.504;9.588;2023-11-19T00:57:21;23.80;;;22.30;;
8397;SDS011;4236;54.504;9.588;2023-11-19T00:59:48;24.13;;;22.40;;
8397;SDS011;4236;54.504;9.588;2023-11-19T01:02:17;23.80;;;22.20;;
8397;SDS011;4236;54.504;9.588;2023-11-19T01:04:44;24.13;;;22.47;;
8397;SDS011;4236;54.504;9.588;2023-11-19T01:07:12;21.87;;;20.63;;
8397;SDS011;4236;54.504;9.588;2023-11-19T01:09:41;23.20;;;21.73;;
8397;SDS011;4236;54.504;9.588;2023-11-19T01:12:09;22.27;;;20.93;;
8397;SDS011;4236;54.504;9.588;2023-11-19T01:14:37;23.40;;;21.77;;
8397;SDS011;4236;54.504;9.588;2023-11-19T01:17:05;23.50;;;21.90;;
8397;SDS011;4236;54.504;9.588;2023-11-19T01:19:34;22.57;;;21.07;;
8397;SDS011;4236;54.504;9.588;2023-11-19T01:22:02;23.50;;;22.10;;
8397;SDS011;4236;54.504;9.588;2023-11-19T01:24:29;24.40;;;22.80;;
8397;SDS011;4236;54.504;9.588;2023-11-19T01:26:57;24.07;;;22.53;;
8397;SDS011;4236;54.504;9.588;2023-11-19T01:29:26;23.20;;;21.70;;
8397;SDS011;4236;54.504;9.588;2023-11-19T01:31:54;23.47;;;21.67;;
8397;SDS011;4236;54.504;9.588;2023-11-19T01:34:22;23.87;;;22.40;;
8397;SDS011;4236;54.504;9.588;2023-11-19T01:36:51;22.60;;;21.20;;
8397;SDS011;4236;54.504;9.588;2023-11-19T01:39:19;22.10;;;20.70;;
8397;SDS011;4236;54.504;9.588;2023-11-19T01:41:47;22.00;;;20.60;;
8397;SDS011;4236;54.504;9.588;2023-11-19T01:44:15;21.90;;;20.50;;
8397;SDS011;4236;54.504;9.588;2023-11-19T01:46:43;21.73;;;20.27;;
8397;SDS011;4236;54.504;9.588;2023-11-19T01:49:11;22.17;;;20.90;;
8397;SDS011;4236;54.504;9.588;2023-11-19T01:51:39;22.40;;;20.90;;
8397;SDS011;4236;54.504;9.588;2023-11-19T01:54:09;21.83;;;20.60;;
8397;SDS011;4236;54.504;9.588;2023-11-19T01:56:36;21.27;;;20.07;;
8397;SDS011;4236;54.504;9.588;2023-11-19T01:59:06;19.70;;;18.60;;
8397;SDS011;4236;54.504;9.588;2023-11-19T02:01:35;21.03;;;19.57;;
8397;SDS011;4236;54.504;9.588;2023-11-19T02:04:06;18.93;;;17.93;;
8397;SDS011;4236;54.504;9.588;2023-11-19T02:06:34;18.67;;;17.77;;
8397;SDS011;4236;54.504;9.588;2023-11-19T02:09:05;19.20;;;18.20;;
8397;SDS011;4236;54.504;9.588;2023-11-19T02:11:35;19.20;;;18.20;;
8397;SDS011;4236;54.504;9.588;2023-11-19T02:14:03;18.50;;;17.60;;
8397;SDS011;4236;54.504;9.588;2023-11-19T02:16:31;19.97;;;18.87;;
8397;SDS011;4236;54.504;9.588;2023-11-19T02:18:59;19.53;;;18.47;;
8397;SDS011;4236;54.504;9.588;2023-11-19T02:21:26;18.07;;;17.27;;
8397;SDS011;4236;54.504;9.588;2023-11-19T02:23:54;18.07;;;17.17;;
8397;SDS011;4236;54.504;9.588;2023-11-19T02:26:33;18.60;;;17.70;;
8397;SDS011;4236;54.504;9.588;2023-11-19T02:29:06;18.37;;;17.57;;
8397;SDS011;4236;54.504;9.588;2023-11-19T02:31:34;17.13;;;16.27;;
8397;SDS011;4236;54.504;9.588;2023-11-19T02:34:02;17.77;;;16.93;;
8397;SDS011;4236;54.504;9.588;2023-11-19T02:36:30;18.00;;;17.20;;
8397;SDS011;4236;54.504;9.588;2023-11-19T02:38:58;17.90;;;17.20;;
8397;SDS011;4236;54.504;9.588;2023-11-19T02:41:26;18.30;;;17.50;;
8397;SDS011;4236;54.504;9.588;2023-11-19T02:43:53;16.90;;;16.30;;
8397;SDS011;4236;54.504;9.588;2023-11-19T02:46:22;16.70;;;16.00;;
8397;SDS011;4236;54.504;9.588;2023-11-19T02:48:50;17.03;;;16.33;;
8397;SDS011;4236;54.504;9.588;2023-11-19T02:51:18;17.80;;;17.00;;
8397;SDS011;4236;54.504;9.588;2023-11-19T02:53:45;17.90;;;17.00;;
8397;SDS011;4236;54.504;9.588;2023-11-19T02:56:14;18.23;;;17.43;;
8397;SDS011;4236;54.504;9.588;2023-11-19T02:58:46;18.60;;;17.90;;
8397;SDS011;4236;54.504;9.588;2023-11-19T03:01:22;17.50;;;16.77;;
8397;SDS011;4236;54.504;9.588;2023-11-19T03:03:57;17.37;;;16.73;;
8397;SDS011;4236;54.504;9.588;2023-11-19T03:06:26;17.07;;;16.47;;
8397;SDS011;4236;54.504;9.588;2023-11-19T03:08:54;17.80;;;17.00;;
8397;SDS011;4236;54.504;9.588;2023-11-19T03:11:21;16.50;;;15.90;;
8397;SDS011;4236;54.504;9.588;2023-11-19T03:13:49;16.23;;;15.63;;
8397;SDS011;4236;54.504;9.588;2023-11-19T03:16:17;16.10;;;15.57;;
8397;SDS011;4236;54.504;9.588;2023-11-19T03:18:46;16.10;;;15.50;;
8397;SDS011;4236;54.504;9.588;2023-11-19T03:21:13;15.20;;;14.70;;
8397;SDS011;4236;54.504;9.588;2023-11-19T03:23:41;14.93;;;14.53;;
8397;SDS011;4236;54.504;9.588;2023-11-19T03:26:10;14.80;;;14.30;;
8397;SDS011;4236;54.504;9.588;2023-11-19T03:28:37;16.13;;;15.50;;
8397;SDS011;4236;54.504;9.588;2023-11-19T03:31:05;15.90;;;15.40;;
8397;SDS011;4236;54.504;9.588;2023-11-19T03:33:34;15.47;;;14.97;;
8397;SDS011;4236;54.504;9.588;2023-11-19T03:36:05;15.27;;;14.77;;
8397;SDS011;4236;54.504;9.588;2023-11-19T03:38:33;15.43;;;14.93;;
8397;SDS011;4236;54.504;9.588;2023-11-19T03:41:00;14.97;;;14.47;;
8397;SDS011;4236;54.504;9.588;2023-11-19T03:43:27;15.80;;;15.30;;
8397;SDS011;4236;54.504;9.588;2023-11-19T03:45:55;16.17;;;15.57;;
8397;SDS011;4236;54.504;9.588;2023-11-19T03:48:22;15.03;;;14.63;;
8397;SDS011;4236;54.504;9.588;2023-11-19T03:50:50;16.40;;;15.90;;
8397;SDS011;4236;54.504;9.588;2023-11-19T03:53:19;16.23;;;15.53;;
8397;SDS011;4236;54.504;9.588;2023-11-19T03:55:46;16.20;;;15.60;;
8397;SDS011;4236;54.504;9.588;2023-11-19T03:58:16;16.00;;;15.50;;
8397;SDS011;4236;54.504;9.588;2023-11-19T04:00:43;16.20;;;15.70;;
8397;SDS011;4236;54.504;9.588;2023-11-19T04:03:11;14.97;;;14.57;;
8397;SDS011;4236;54.504;9.588;2023-11-19T04:05:38;14.93;;;14.53;;
8397;SDS011;4236;54.504;9.588;2023-11-19T04:08:06;14.40;;;14.00;;
8397;SDS011;4236;54.504;9.588;2023-11-19T04:10:35;13.50;;;13.20;;
8397;SDS011;4236;54.504;9.588;2023-11-19T04:13:02;13.93;;;13.53;;
8397;SDS011;4236;54.504;9.588;2023-11-19T04:15:30;14.10;;;13.70;;
8397;SDS011;4236;54.504;9.588;2023-11-19T04:17:58;14.20;;;13.80;;
8397;SDS011;4236;54.504;9.588;2023-11-19T04:20:25;14.20;;;13.80;;
8397;SDS011;4236;54.504;9.588;2023-11-19T04:22:53;14.10;;;13.60;;
8397;SDS011;4236;54.504;9.588;2023-11-19T04:25:20;14.13;;;13.73;;
8397;SDS011;4236;54.504;9.588;2023-11-19T04:27:50;14.50;;;14.00;;
8397;SDS011;4236;54.504;9.588;2023-11-19T04:30:18;14.70;;;14.30;;
8397;SDS011;4236;54.504;9.588;2023-11-19T04:32:45;14.70;;;14.20;;
8397;SDS011;4236;54.504;9.588;2023-11-19T04:35:14;14.23;;;13.80;;
8397;SDS011;4236;54.504;9.588;2023-11-19T04:37:43;14.30;;;13.80;;
8397;SDS011;4236;54.504;9.588;2023-11-19T04:40:10;14.70;;;14.10;;
8397;SDS011;4236;54.504;9.588;2023-11-19T04:42:38;14.43;;;14.03;;
8397;SDS011;4236;54.504;9.588;2023-11-19T04:45:08;13.87;;;13.47;;
8397;SDS011;4236;54.504;9.588;2023-11-19T04:47:36;14.80;;;14.40;;
8397;SDS011;4236;54.504;9.588;2023-11-19T04:50:04;14.47;;;14.07;;
8397;SDS011;4236;54.504;9.588;2023-11-19T04:52:32;14.53;;;14.13;;
8397;SDS011;4236;54.504;9.588;2023-11-19T04:55:00;14.00;;;13.50;;
8397;SDS011;4236;54.504;9.588;2023-11-19T04:57:27;14.17;;;13.77;;
8397;SDS011;4236;54.504;9.588;2023-11-19T04:59:55;14.30;;;13.90;;
8397;SDS011;4236;54.504;9.588;2023-11-19T05:02:24;14.60;;;14.20;;
8397;SDS011;4236;54.504;9.588;2023-11-19T05:04:52;14.17;;;13.77;;
8397;SDS011;4236;54.504;9.588;2023-11-19T05:07:19;14.30;;;13.90;;
8397;SDS011;4236;54.504;9.588;2023-11-19T05:09:47;14.17;;;13.77;;
8397;SDS011;4236;54.504;9.588;2023-11-19T05:12:15;14.77;;;14.17;;
8397;SDS011;4236;54.504;9.588;2023-11-19T05:14:42;15.30;;;14.50;;
8397;SDS011;4236;54.504;9.588;2023-11-19T05:17:15;14.03;;;13.63;;
8397;SDS011;4236;54.504;9.588;2023-11-19T05:19:46;14.20;;;13.80;;
8397;SDS011;4236;54.504;9.588;2023-11-19T05:22:14;14.63;;;14.23;;
8397;SDS011;4236;54.504;9.588;2023-11-19T05:24:42;15.10;;;14.40;;
8397;SDS011;4236;54.504;9.588;2023-11-19T05:27:10;15.17;;;14.77;;
8397;SDS011;4236;54.504;9.588;2023-11-19T05:29:39;15.23;;;14.73;;
8397;SDS011;4236;54.504;9.588;2023-11-19T05:32:07;15.40;;;14.90;;
8397;SDS011;4236;54.504;9.588;2023-11-19T05:34:35;15.00;;;14.50;;
8397;SDS011;4236;54.504;9.588;2023-11-19T05:37:04;14.97;;;14.47;;
8397;SDS011;4236;54.504;9.588;2023-11-19T05:39:32;15.00;;;14.50;;
8397;SDS011;4236;54.504;9.588;2023-11-19T05:41:59;15.30;;;14.80;;
8397;SDS011;4236;54.504;9.588;2023-11-19T05:44:27;15.83;;;15.20;;
8397;SDS011;4236;54.504;9.588;2023-11-19T05:46:54;16.23;;;15.60;;
8397;SDS011;4236;54.504;9.588;2023-11-19T05:49:22;15.80;;;15.20;;
8397;SDS011;4236;54.504;9.588;2023-11-19T05:51:49;16.13;;;15.43;;
8397;SDS011;4236;54.504;9.588;2023-11-19T05:54:18;16.47;;;15.77;;
8397;SDS011;4236;54.504;9.588;2023-11-19T05:56:47;17.60;;;16.60;;
8397;SDS011;4236;54.504;9.588;2023-11-19T05:59:15;17.40;;;15.97;;
8397;SDS011;4236;54.504;9.588;2023-11-19T06:01:44;18.80;;;17.70;;
8397;SDS011;4236;54.504;9.588;2023-11-19T06:04:11;19.70;;;18.50;;
8397;SDS011;4236;54.504;9.588;2023-11-19T06:06:39;19.10;;;17.90;;
8397;SDS011;4236;54.504;9.588;2023-11-19T06:09:07;21.93;;;20.20;;
8397;SDS011;4236;54.504;9.588;2023-11-19T06:11:40;20.80;;;19.10;;
8397;SDS011;4236;54.504;9.588;2023-11-19T06:14:07;24.67;;;22.73;;
8397;SDS011;4236;54.504;9.588;2023-11-19T06:16:35;22.43;;;20.47;;
8397;SDS011;4236;54.504;9.588;2023-11-19T06:19:03;21.90;;;20.23;;
8397;SDS011;4236;54.504;9.588;2023-11-19T06:21:31;21.87;;;20.10;;
8397;SDS011;4236;54.504;9.588;2023-11-19T06:23:58;26.23;;;21.53;;
8397;SDS011;4236;54.504;9.588;2023-11-19T06:26:26;23.33;;;21.40;;
8397;SDS011;4236;54.504;9.588;2023-11-19T06:28:55;22.70;;;20.40;;
8397;SDS011;4236;54.504;9.588;2023-11-19T06:31:23;26.63;;;23.00;;
8397;SDS011;4236;54.504;9.588;2023-11-19T06:33:50;25.70;;;23.30;;
8397;SDS011;4236;54.504;9.588;2023-11-19T06:36:18;24.83;;;22.07;;
8397;SDS011;4236;54.504;9.588;2023-11-19T06:38:45;29.50;;;25.53;;
8397;SDS011;4236;54.504;9.588;2023-11-19T06:41:13;30.00;;;24.20;;
8397;SDS011;4236;54.504;9.588;2023-11-19T06:43:40;28.40;;;25.50;;
8397;SDS011;4236;54.504;9.588;2023-11-19T06:46:15;24.67;;;22.23;;
8397;SDS011;4236;54.504;9.588;2023-11-19T06:48:43;23.57;;;21.67;;
8397;SDS011;4236;54.504;9.588;2023-11-19T06:51:11;24.00;;;21.70;;
8397;SDS011;4236;54.504;9.588;2023-11-19T06:53:38;23.07;;;21.27;;
8397;SDS011;4236;54.504;9.588;2023-11-19T06:56:16;22.37;;;20.10;;
8397;SDS011;4236;54.504;9.588;2023-11-19T06:58:44;23.60;;;21.27;;
8397;SDS011;4236;54.504;9.588;2023-11-19T07:01:11;26.53;;;21.40;;
8397;SDS011;4236;54.504;9.588;2023-11-19T07:03:40;22.53;;;20.23;;
8397;SDS011;4236;54.504;9.588;2023-11-19T07:06:08;23.23;;;20.90;;
8397;SDS011;4236;54.504;9.588;2023-11-19T07:08:35;33.10;;;23.00;;
8397;SDS011;4236;54.504;9.588;2023-11-19T07:11:04;24.37;;;21.17;;
8397;SDS011;4236;54.504;9.588;2023-11-19T07:13:32;24.70;;;21.17;;
8397;SDS011;4236;54.504;9.588;2023-11-19T07:16:00;26.23;;;23.53;;
8397;SDS011;4236;54.504;9.588;2023-11-19T07:18:28;23.63;;;21.27;;
8397;SDS011;4236;54.504;9.588;2023-11-19T07:20:57;31.43;;;22.40;;
8397;SDS011;4236;54.504;9.588;2023-11-19T07:23:26;33.90;;;22.17;;
8397;SDS011;4236;54.504;9.588;2023-11-19T07:25:54;24.80;;;21.30;;
8397;SDS011;4236;54.504;9.588;2023-11-19T07:28:21;32.00;;;21.33;;
8397;SDS011;4236;54.504;9.588;2023-11-19T07:30:49;34.80;;;22.27;;
8397;SDS011;4236;54.504;9.588;2023-11-19T07:33:17;45.03;;;24.93;;
8397;SDS011;4236;54.504;9.588;2023-11-19T07:35:46;33.93;;;24.00;;
8397;SDS011;4236;54.504;9.588;2023-11-19T07:38:16;30.40;;;23.30;;
8397;SDS011;4236;54.504;9.588;2023-11-19T07:40:44;42.57;;;23.37;;
8397;SDS011;4236;54.504;9.588;2023-11-19T07:43:14;28.60;;;21.40;;
8397;SDS011;4236;54.504;9.588;2023-11-19T07:45:42;34.03;;;21.60;;
8397;SDS011;4236;54.504;9.588;2023-11-19T07:48:11;38.23;;;21.57;;
8397;SDS011;4236;54.504;9.588;2023-11-19T07:50:40;43.20;;;21.30;;
8397;SDS011;4236;54.504;9.588;2023-11-19T07:53:08;34.83;;;20.33;;
8397;SDS011;4236;54.504;9.588;2023-11-19T07:55:37;63.80;;;22.40;;
8397;SDS011;4236;54.504;9.588;2023-11-19T07:58:09;43.27;;;20.37;;
8397;SDS011;4236;54.504;9.588;2023-11-19T08:00:36;58.27;;;22.40;;
8397;SDS011;4236;54.504;9.588;2023-11-19T08:03:04;48.97;;;20.47;;
8397;SDS011;4236;54.504;9.588;2023-11-19T08:05:32;49.70;;;22.93;;
8397;SDS011;4236;54.504;9.588;2023-11-19T08:08:00;62.33;;;23.07;;
8397;SDS011;4236;54.504;9.588;2023-11-19T08:10:28;54.23;;;21.50;;
8397;SDS011;4236;54.504;9.588;2023-11-19T08:12:57;47.23;;;23.00;;
8397;SDS011;4236;54.504;9.588;2023-11-19T08:15:24;50.77;;;22.13;;
8397;SDS011;4236;54.504;9.588;2023-11-19T08:17:55;51.23;;;22.50;;
8397;SDS011;4236;54.504;9.588;2023-11-19T08:20:23;56.80;;;24.33;;
8397;SDS011;4236;54.504;9.588;2023-11-19T08:22:50;54.50;;;22.60;;
8397;SDS011;4236;54.504;9.588;2023-11-19T08:25:18;58.43;;;25.00;;
8397;SDS011;4236;54.504;9.588;2023-11-19T08:27:45;57.13;;;23.80;;
8397;SDS011;4236;54.504;9.588;2023-11-19T08:30:14;58.73;;;24.23;;
8397;SDS011;4236;54.504;9.588;2023-11-19T08:32:42;69.30;;;26.13;;
8397;SDS011;4236;54.504;9.588;2023-11-19T08:35:10;63.90;;;23.03;;
8397;SDS011;4236;54.504;9.588;2023-11-19T08:37:37;50.53;;;23.23;;
8397;SDS011;4236;54.504;9.588;2023-11-19T08:40:05;51.60;;;23.47;;
8397;SDS011;4236;54.504;9.588;2023-11-19T08:42:33;52.57;;;23.97;;
8397;SDS011;4236;54.504;9.588;2023-11-19T08:45:01;70.37;;;23.50;;
8397;SDS011;4236;54.504;9.588;2023-11-19T08:47:30;64.63;;;23.50;;
8397;SDS011;4236;54.504;9.588;2023-11-19T08:49:57;53.97;;;24.87;;
8397;SDS011;4236;54.504;9.588;2023-11-19T08:52:28;64.20;;;26.17;;
8397;SDS011;4236;54.504;9.588;2023-11-19T08:54:59;54.80;;;25.23;;
8397;SDS011;4236;54.504;9.588;2023-11-19T08:57:27;55.43;;;24.00;;
8397;SDS011;4236;54.504;9.588;2023-11-19T08:59:54;53.63;;;24.73;;
8397;SDS011;4236;54.504;9.588;2023-11-19T09:02:22;59.27;;;24.47;;
8397;SDS011;4236;54.504;9.588;2023-11-19T09:04:51;60.20;;;25.50;;
8397;SDS011;4236;54.504;9.588;2023-11-19T09:07:20;50.40;;;24.77;;
8397;SDS011;4236;54.504;9.588;2023-11-19T09:09:47;55.00;;;25.27;;
8397;SDS011;4236;54.504;9.588;2023-11-19T09:12:15;51.83;;;24.57;;
8397;SDS011;4236;54.504;9.588;2023-11-19T09:14:42;54.37;;;23.33;;
8397;SDS011;4236;54.504;9.588;2023-11-19T09:17:10;69.53;;;24.20;;
8397;SDS011;4236;54.504;9.588;2023-11-19T09:19:37;51.43;;;24.87;;
8397;SDS011;4236;54.504;9.588;2023-11-19T09:22:06;59.23;;;25.40;;
8397;SDS011;4236;54.504;9.588;2023-11-19T09:24:34;49.97;;;24.10;;
8397;SDS011;4236;54.504;9.588;2023-11-19T09:27:01;50.53;;;24.97;;
8397;SDS011;4236;54.504;9.588;2023-11-19T09:29:31;55.40;;;23.47;;
8397;SDS011;4236;54.504;9.588;2023-11-19T09:31:58;58.30;;;25.43;;
8397;SDS011;4236;54.504;9.588;2023-11-19T09:34:26;51.13;;;23.00;;
8397;SDS011;4236;54.504;9.588;2023-11-19T09:36:54;49.07;;;24.03;;
8397;SDS011;4236;54.504;9.588;2023-11-19T09:39:22;38.57;;;21.90;;
8397;SDS011;4236;54.504;9.588;2023-11-19T09:41:51;44.30;;;23.63;;
8397;SDS011;4236;54.504;9.588;2023-11-19T09:44:20;64.30;;;25.93;;
8397;SDS011;4236;54.504;9.588;2023-11-19T09:46:47;47.07;;;22.27;;
8397;SDS011;4236;54.504;9.588;2023-11-19T09:49:15;42.63;;;22.00;;
8397;SDS011;4236;54.504;9.588;2023-11-19T09:52:01;45.20;;;24.53;;
8397;SDS011;4236;54.504;9.588;2023-11-19T09:54:31;51.17;;;24.40;;
8397;SDS011;4236;54.504;9.588;2023-11-19T09:56:58;44.27;;;21.60;;
8397;SDS011;4236;54.504;9.588;2023-11-19T09:59:30;40.73;;;23.90;;
8397;SDS011;4236;54.504;9.588;2023-11-19T10:01:58;42.23;;;23.93;;
8397;SDS011;4236;54.504;9.588;2023-11-19T10:04:26;38.07;;;22.43;;
8397;SDS011;4236;54.504;9.588;2023-11-19T10:06:57;39.23;;;23.63;;
8397;SDS011;4236;54.504;9.588;2023-11-19T10:09:24;52.23;;;27.00;;
8397;SDS011;4236;54.504;9.588;2023-11-19T10:11:53;54.40;;;25.67;;
8397;SDS011;4236;54.504;9.588;2023-11-19T10:14:22;51.80;;;25.60;;
8397;SDS011;4236;54.504;9.588;2023-11-19T10:16:50;47.00;;;24.90;;
8397;SDS011;4236;54.504;9.588;2023-11-19T10:19:21;49.07;;;25.80;;
8397;SDS011;4236;54.504;9.588;2023-11-19T10:21:49;44.20;;;24.70;;
8397;SDS011;4236;54.504;9.588;2023-11-19T10:24:16;46.33;;;25.97;;
8397;SDS011;4236;54.504;9.588;2023-11-19T10:26:59;67.73;;;26.97;;
8397;SDS011;4236;54.504;9.588;2023-11-19T10:29:27;50.63;;;24.83;;
8397;SDS011;4236;54.504;9.588;2023-11-19T10:31:56;44.50;;;24.20;;
8397;SDS011;4236;54.504;9.588;2023-11-19T10:34:44;49.27;;;25.20;;
8397;SDS011;4236;54.504;9.588;2023-11-19T10:37:18;40.73;;;24.87;;
8397;SDS011;4236;54.504;9.588;2023-11-19T10:39:54;48.00;;;22.97;;
8397;SDS011;4236;54.504;9.588;2023-11-19T10:42:23;43.70;;;23.80;;
8397;SDS011;4236;54.504;9.588;2023-11-19T10:44:51;50.23;;;25.47;;
8397;SDS011;4236;54.504;9.588;2023-11-19T10:47:18;47.10;;;24.47;;
8397;SDS011;4236;54.504;9.588;2023-11-19T10:50:04;34.70;;;22.70;;
8397;SDS011;4236;54.504;9.588;2023-11-19T10:52:32;52.57;;;25.07;;
8397;SDS011;4236;54.504;9.588;2023-11-19T10:55:01;46.07;;;24.60;;
8397;SDS011;4236;54.504;9.588;2023-11-19T10:57:33;47.33;;;26.00;;
8397;SDS011;4236;54.504;9.588;2023-11-19T11:00:04;42.83;;;25.07;;
8397;SDS011;4236;54.504;9.588;2023-11-19T11:02:37;40.87;;;25.73;;
8397;SDS011;4236;54.504;9.588;2023-11-19T11:05:08;39.10;;;24.17;;
8397;SDS011;4236;54.504;9.588;2023-11-19T11:07:35;53.13;;;25.47;;
8397;SDS011;4236;54.504;9.588;2023-11-19T11:10:07;50.67;;;26.53;;
8397;SDS011;4236;54.504;9.588;2023-11-19T11:12:37;38.10;;;24.37;;
8397;SDS011;4236;54.504;9.588;2023-11-19T11:15:06;40.03;;;23.60;;
8397;SDS011;4236;54.504;9.588;2023-11-19T11:17:34;43.60;;;23.43;;
8397;SDS011;4236;54.504;9.588;2023-11-19T11:20:04;48.47;;;26.37;;
8397;SDS011;4236;54.504;9.588;2023-11-19T11:22:33;48.33;;;25.00;;
8397;SDS011;4236;54.504;9.588;2023-11-19T11:25:12;43.57;;;24.93;;
8397;SDS011;4236;54.504;9.588;2023-11-19T11:27:59;53.40;;;26.40;;
8397;SDS011;4236;54.504;9.588;2023-11-19T11:30:32;45.20;;;25.23;;
8397;SDS011;4236;54.504;9.588;2023-11-19T11:33:06;47.50;;;25.03;;
8397;SDS011;4236;54.504;9.588;2023-11-19T11:35:39;59.40;;;24.17;;
8397;SDS011;4236;54.504;9.588;2023-11-19T11:38:10;52.77;;;25.17;;
8397;SDS011;4236;54.504;9.588;2023-11-19T11:40:39;55.60;;;24.53;;
8397;SDS011;4236;54.504;9.588;2023-11-19T11:43:18;48.80;;;23.90;;
8397;SDS011;4236;54.504;9.588;2023-11-19T11:46:06;59.40;;;26.57;;
8397;SDS011;4236;54.504;9.588;2023-11-19T11:48:34;47.77;;;25.80;;
8397;SDS011;4236;54.504;9.588;2023-11-19T11:51:02;54.43;;;24.40;;
8397;SDS011;4236;54.504;9.588;2023-11-19T11:53:30;55.03;;;24.47;;
8397;SDS011;4236;54.504;9.588;2023-11-19T11:55:58;37.47;;;23.60;;
8397;SDS011;4236;54.504;9.588;2023-11-19T11:58:30;55.77;;;23.77;;
8397;SDS011;4236;54.504;9.588;2023-11-19T12:00:58;52.73;;;25.03;;
8397;SDS011;4236;54.504;9.588;2023-11-19T12:03:27;50.80;;;23.63;;
8397;SDS011;4236;54.504;9.588;2023-11-19T12:05:55;57.73;;;25.20;;
8397;SDS011;4236;54.504;9.588;2023-11-19T12:08:24;51.13;;;23.83;;
8397;SDS011;4236;54.504;9.588;2023-11-19T12:10:53;42.43;;;23.80;;
8397;SDS011;4236;54.504;9.588;2023-11-19T12:13:24;46.07;;;25.23;;
8397;SDS011;4236;54.504;9.588;2023-11-19T12:16:09;59.00;;;26.50;;
8397;SDS011;4236;54.504;9.588;2023-11-19T12:18:38;40.17;;;24.30;;
8397;SDS011;4236;54.504;9.588;2023-11-19T12:21:06;56.10;;;24.07;;
8397;SDS011;4236;54.504;9.588;2023-11-19T12:23:43;55.93;;;25.10;;
8397;SDS011;4236;54.504;9.588;2023-11-19T12:26:21;36.97;;;23.10;;
8397;SDS011;4236;54.504;9.588;2023-11-19T12:28:57;37.20;;;23.87;;
8397;SDS011;4236;54.504;9.588;2023-11-19T12:31:25;41.70;;;24.60;;
8397;SDS011;4236;54.504;9.588;2023-11-19T12:33:53;50.63;;;24.40;;
8397;SDS011;4236;54.504;9.588;2023-11-19T12:36:21;36.90;;;22.10;;
8397;SDS011;4236;54.504;9.588;2023-11-19T12:38:49;36.87;;;21.90;;
8397;SDS011;4236;54.504;9.588;2023-11-19T12:41:17;41.67;;;22.40;;
8397;SDS011;4236;54.504;9.588;2023-11-19T12:43:49;43.33;;;24.40;;
8397;SDS011;4236;54.504;9.588;2023-11-19T12:46:17;31.50;;;22.10;;
8397;SDS011;4236;54.504;9.588;2023-11-19T12:48:47;36.20;;;23.10;;
8397;SDS011;4236;54.504;9.588;2023-11-19T12:51:15;46.90;;;24.77;;
8397;SDS011;4236;54.504;9.588;2023-11-19T12:53:49;39.47;;;24.47;;
8397;SDS011;4236;54.504;9.588;2023-11-19T12:56:19;33.87;;;23.10;;
8397;SDS011;4236;54.504;9.588;2023-11-19T12:58:46;44.53;;;22.80;;
8397;SDS011;4236;54.504;9.588;2023-11-19T13:01:15;50.77;;;24.37;;
8397;SDS011;4236;54.504;9.588;2023-11-19T13:03:43;47.00;;;25.03;;
8397;SDS011;4236;54.504;9.588;2023-11-19T13:06:13;37.10;;;23.30;;
8397;SDS011;4236;54.504;9.588;2023-11-19T13:08:42;44.83;;;22.53;;
8397;SDS011;4236;54.504;9.588;2023-11-19T13:11:11;43.67;;;23.10;;
8397;SDS011;4236;54.504;9.588;2023-11-19T13:13:55;40.17;;;20.83;;
8397;SDS011;4236;54.504;9.588;2023-11-19T13:16:22;36.90;;;21.33;;
8397;SDS011;4236;54.504;9.588;2023-11-19T13:18:50;43.53;;;23.97;;
8397;SDS011;4236;54.504;9.588;2023-11-19T13:21:19;39.80;;;23.40;;
8397;SDS011;4236;54.504;9.588;2023-11-19T13:23:47;44.00;;;22.50;;
8397;SDS011;4236;54.504;9.588;2023-11-19T13:26:14;38.47;;;22.13;;
8397;SDS011;4236;54.504;9.588;2023-11-19T13:28:42;46.40;;;21.77;;
8397;SDS011;4236;54.504;9.588;2023-11-19T13:31:09;34.80;;;22.07;;
8397;SDS011;4236;54.504;9.588;2023-11-19T13:33:37;62.13;;;22.80;;
8397;SDS011;4236;54.504;9.588;2023-11-19T13:36:05;49.63;;;22.57;;
8397;SDS011;4236;54.504;9.588;2023-11-19T13:38:35;38.27;;;21.80;;
8397;SDS011;4236;54.504;9.588;2023-11-19T13:41:03;57.53;;;23.43;;
8397;SDS011;4236;54.504;9.588;2023-11-19T13:43:31;52.37;;;24.67;;
8397;SDS011;4236;54.504;9.588;2023-11-19T13:45:59;36.53;;;21.80;;
8397;SDS011;4236;54.504;9.588;2023-11-19T13:48:27;48.27;;;24.10;;
8397;SDS011;4236;54.504;9.588;2023-11-19T13:50:55;48.17;;;23.00;;
8397;SDS011;4236;54.504;9.588;2023-11-19T13:53:23;43.00;;;23.20;;
8397;SDS011;4236;54.504;9.588;2023-11-19T13:55:52;41.23;;;23.87;;
8397;SDS011;4236;54.504;9.588;2023-11-19T13:58:20;42.20;;;24.10;;
8397;SDS011;4236;54.504;9.588;2023-11-19T14:00:47;47.50;;;23.53;;
8397;SDS011;4236;54.504;9.588;2023-11-19T14:03:15;48.10;;;25.97;;
8397;SDS011;4236;54.504;9.588;2023-11-19T14:05:43;38.53;;;22.67;;
8397;SDS011;4236;54.504;9.588;2023-11-19T14:08:10;49.17;;;22.83;;
8397;SDS011;4236;54.504;9.588;2023-11-19T14:10:50;48.67;;;23.50;;
8397;SDS011;4236;54.504;9.588;2023-11-19T14:13:20;50.07;;;25.00;;
8397;SDS011;4236;54.504;9.588;2023-11-19T14:15:48;44.90;;;23.10;;
8397;SDS011;4236;54.504;9.588;2023-11-19T14:18:16;53.83;;;23.10;;
8397;SDS011;4236;54.504;9.588;2023-11-19T14:20:44;46.27;;;24.13;;
8397;SDS011;4236;54.504;9.588;2023-11-19T14:23:11;37.77;;;22.17;;
8397;SDS011;4236;54.504;9.588;2023-11-19T14:25:39;41.77;;;24.00;;
8397;SDS011;4236;54.504;9.588;2023-11-19T14:28:05;47.13;;;23.73;;
8397;SDS011;4236;54.504;9.588;2023-11-19T14:30:35;49.30;;;24.53;;
8397;SDS011;4236;54.504;9.588;2023-11-19T14:33:03;50.50;;;24.77;;
8397;SDS011;4236;54.504;9.588;2023-11-19T14:35:31;51.97;;;24.20;;
8397;SDS011;4236;54.504;9.588;2023-11-19T14:38:00;44.57;;;25.27;;
8397;SDS011;4236;54.504;9.588;2023-11-19T14:40:31;45.07;;;24.70;;
8397;SDS011;4236;54.504;9.588;2023-11-19T14:43:01;42.93;;;24.40;;
8397;SDS011;4236;54.504;9.588;2023-11-19T14:45:29;35.03;;;22.40;;
8397;SDS011;4236;54.504;9.588;2023-11-19T14:48:08;48.70;;;24.93;;
8397;SDS011;4236;54.504;9.588;2023-11-19T14:50:36;33.90;;;22.33;;
8397;SDS011;4236;54.504;9.588;2023-11-19T14:53:04;35.73;;;22.03;;
8397;SDS011;4236;54.504;9.588;2023-11-19T14:55:31;48.90;;;22.70;;
8397;SDS011;4236;54.504;9.588;2023-11-19T14:57:59;41.67;;;23.57;;